sensor_id;sensor_type;location;lat;lon;timestamp;P1;durP1;ratioP1;P2;durP2;ratioP2
20890;SDS011;10605;52.968;8.844;2023-07-09T00:01:44;7.35;;;6.55;;
20890;SDS011;10605;52.968;8.844;2023-07-09T00:04:10;7.72;;;6.82;;
20890;SDS011;10605;52.968;8.844;2023-07-09T00:06:36;6.95;;;6.35;;
20890;SDS011;10605;52.968;8.844;2023-07-09T00:09:02;7.68;;;6.97;;
20890;SDS011;10605;52.968;8.844;2023-07-09T00:11:29;7.85;;;5.88;;
20890;SDS011;10605;52.968;8.844;2023-07-09T00:13:55;8.32;;;6.72;;
20890;SDS011;10605;52.968;8.844;2023-07-09T00:16:24;7.10;;;6.50;;
20890;SDS011;10605;52.968;8.844;2023-07-09T00:18:51;6.55;;;6.10;;
20890;SDS011;10605;52.968;8.844;2023-07-09T00:21:17;7.00;;;6.45;;
20890;SDS011;10605;52.968;8.844;2023-07-09T00:23:45;9.40;;;6.00;;
20890;SDS011;10605;52.968;8.844;2023-07-09T00:26:14;7.30;;;6.18;;
20890;SDS011;10605;52.968;8.844;2023-07-09T00:28:41;6.93;;;6.25;;
20890;SDS011;10605;52.968;8.844;2023-07-09T00:31:11;10.55;;;6.75;;
20890;SDS011;10605;52.968;8.844;2023-07-09T00:33:41;7.38;;;6.43;;
20890;SDS011;10605;52.968;8.844;2023-07-09T00:36:11;9.90;;;6.35;;
20890;SDS011;10605;52.968;8.844;2023-07-09T00:38:51;7.20;;;6.68;;
20890;SDS011;10605;52.968;8.844;2023-07-09T00:41:18;9.18;;;6.93;;
20890;SDS011;10605;52.968;8.844;2023-07-09T00:43:46;7.10;;;6.38;;
20890;SDS011;10605;52.968;8.844;2023-07-09T00:48:42;8.98;;;6.70;;
20890;SDS011;10605;52.968;8.844;2023-07-09T00:51:13;7.43;;;6.65;;
20890;SDS011;10605;52.968;8.844;2023-07-09T00:53:43;7.78;;;6.22;;
20890;SDS011;10605;52.968;8.844;2023-07-09T00:56:12;7.82;;;6.68;;
20890;SDS011;10605;52.968;8.844;2023-07-09T00:58:40;9.68;;;7.00;;
20890;SDS011;10605;52.968;8.844;2023-07-09T01:01:11;7.25;;;6.65;;
20890;SDS011;10605;52.968;8.844;2023-07-09T01:03:42;7.78;;;6.88;;
20890;SDS011;10605;52.968;8.844;2023-07-09T01:06:11;7.90;;;7.30;;
20890;SDS011;10605;52.968;8.844;2023-07-09T01:08:39;8.23;;;7.40;;
20890;SDS011;10605;52.968;8.844;2023-07-09T01:11:16;7.35;;;6.68;;
20890;SDS011;10605;52.968;8.844;2023-07-09T01:13:47;6.93;;;6.38;;
20890;SDS011;10605;52.968;8.844;2023-07-09T01:16:31;8.77;;;8.07;;
20890;SDS011;10605;52.968;8.844;2023-07-09T01:18:59;12.20;;;7.00;;
20890;SDS011;10605;52.968;8.844;2023-07-09T01:21:25;7.82;;;7.13;;
20890;SDS011;10605;52.968;8.844;2023-07-09T01:23:52;8.80;;;7.43;;
20890;SDS011;10605;52.968;8.844;2023-07-09T01:26:20;9.25;;;7.45;;
20890;SDS011;10605;52.968;8.844;2023-07-09T01:28:50;8.05;;;7.25;;
20890;SDS011;10605;52.968;8.844;2023-07-09T01:31:16;9.07;;;7.75;;
20890;SDS011;10605;52.968;8.844;2023-07-09T01:33:42;8.55;;;7.07;;
20890;SDS011;10605;52.968;8.844;2023-07-09T01:36:14;8.40;;;7.63;;
20890;SDS011;10605;52.968;8.844;2023-07-09T01:38:43;9.43;;;8.55;;
20890;SDS011;10605;52.968;8.844;2023-07-09T01:41:09;16.60;;;8.10;;
20890;SDS011;10605;52.968;8.844;2023-07-09T01:43:39;8.18;;;7.47;;
20890;SDS011;10605;52.968;8.844;2023-07-09T01:46:06;8.38;;;7.35;;
20890;SDS011;10605;52.968;8.844;2023-07-09T01:48:33;7.43;;;6.72;;
20890;SDS011;10605;52.968;8.844;2023-07-09T01:51:06;8.23;;;7.53;;
20890;SDS011;10605;52.968;8.844;2023-07-09T01:53:34;8.48;;;7.78;;
20890;SDS011;10605;52.968;8.844;2023-07-09T01:56:01;11.27;;;7.75;;
20890;SDS011;10605;52.968;8.844;2023-07-09T01:58:27;9.90;;;7.47;;
20890;SDS011;10605;52.968;8.844;2023-07-09T02:00:55;8.57;;;7.78;;
20890;SDS011;10605;52.968;8.844;2023-07-09T02:03:21;9.05;;;8.10;;
20890;SDS011;10605;52.968;8.844;2023-07-09T02:05:50;8.65;;;8.05;;
20890;SDS011;10605;52.968;8.844;2023-07-09T02:08:20;7.82;;;7.13;;
20890;SDS011;10605;52.968;8.844;2023-07-09T02:10:48;14.40;;;8.48;;
20890;SDS011;10605;52.968;8.844;2023-07-09T02:13:15;8.05;;;7.40;;
20890;SDS011;10605;52.968;8.844;2023-07-09T02:15:42;8.05;;;7.45;;
20890;SDS011;10605;52.968;8.844;2023-07-09T02:18:09;8.43;;;7.70;;
20890;SDS011;10605;52.968;8.844;2023-07-09T02:20:35;9.20;;;8.50;;
20890;SDS011;10605;52.968;8.844;2023-07-09T02:23:01;10.38;;;7.57;;
20890;SDS011;10605;52.968;8.844;2023-07-09T02:25:27;8.70;;;8.10;;
20890;SDS011;10605;52.968;8.844;2023-07-09T02:27:53;14.70;;;8.68;;
20890;SDS011;10605;52.968;8.844;2023-07-09T02:30:18;8.60;;;8.02;;
20890;SDS011;10605;52.968;8.844;2023-07-09T02:32:44;9.50;;;8.63;;
20890;SDS011;10605;52.968;8.844;2023-07-09T02:35:09;9.02;;;8.40;;
20890;SDS011;10605;52.968;8.844;2023-07-09T02:37:35;9.63;;;8.57;;
20890;SDS011;10605;52.968;8.844;2023-07-09T02:40:01;9.82;;;8.75;;
20890;SDS011;10605;52.968;8.844;2023-07-09T02:42:29;9.60;;;8.63;;
20890;SDS011;10605;52.968;8.844;2023-07-09T02:44:54;9.40;;;8.70;;
20890;SDS011;10605;52.968;8.844;2023-07-09T02:47:20;8.55;;;7.75;;
20890;SDS011;10605;52.968;8.844;2023-07-09T02:49:45;8.50;;;7.90;;
20890;SDS011;10605;52.968;8.844;2023-07-09T02:52:11;8.35;;;7.75;;
20890;SDS011;10605;52.968;8.844;2023-07-09T02:54:37;9.02;;;8.23;;
20890;SDS011;10605;52.968;8.844;2023-07-09T02:57:03;10.32;;;8.50;;
20890;SDS011;10605;52.968;8.844;2023-07-09T02:59:29;9.82;;;8.80;;
20890;SDS011;10605;52.968;8.844;2023-07-09T03:01:55;11.07;;;9.20;;
20890;SDS011;10605;52.968;8.844;2023-07-09T03:04:21;12.50;;;8.25;;
20890;SDS011;10605;52.968;8.844;2023-07-09T03:06:46;9.10;;;8.30;;
20890;SDS011;10605;52.968;8.844;2023-07-09T03:09:13;9.15;;;8.05;;
20890;SDS011;10605;52.968;8.844;2023-07-09T03:11:38;9.10;;;8.50;;
20890;SDS011;10605;52.968;8.844;2023-07-09T03:14:04;8.98;;;8.18;;
20890;SDS011;10605;52.968;8.844;2023-07-09T03:16:31;10.82;;;9.38;;
20890;SDS011;10605;52.968;8.844;2023-07-09T03:18:58;8.25;;;7.65;;
20890;SDS011;10605;52.968;8.844;2023-07-09T03:21:25;8.88;;;7.95;;
20890;SDS011;10605;52.968;8.844;2023-07-09T03:23:52;8.68;;;7.97;;
20890;SDS011;10605;52.968;8.844;2023-07-09T03:26:19;8.88;;;8.13;;
20890;SDS011;10605;52.968;8.844;2023-07-09T03:28:44;7.75;;;7.25;;
20890;SDS011;10605;52.968;8.844;2023-07-09T03:31:10;9.77;;;7.55;;
20890;SDS011;10605;52.968;8.844;2023-07-09T03:33:36;9.63;;;7.90;;
20890;SDS011;10605;52.968;8.844;2023-07-09T03:36:02;8.57;;;7.93;;
20890;SDS011;10605;52.968;8.844;2023-07-09T03:38:29;8.75;;;7.95;;
20890;SDS011;10605;52.968;8.844;2023-07-09T03:40:55;8.45;;;7.75;;
20890;SDS011;10605;52.968;8.844;2023-07-09T03:43:21;8.15;;;7.45;;
20890;SDS011;10605;52.968;8.844;2023-07-09T03:45:48;8.75;;;7.97;;
20890;SDS011;10605;52.968;8.844;2023-07-09T03:48:15;7.75;;;7.15;;
20890;SDS011;10605;52.968;8.844;2023-07-09T03:50:43;7.55;;;6.93;;
20890;SDS011;10605;52.968;8.844;2023-07-09T03:53:10;7.90;;;7.30;;
20890;SDS011;10605;52.968;8.844;2023-07-09T03:55:36;7.88;;;7.28;;
20890;SDS011;10605;52.968;8.844;2023-07-09T03:58:02;8.82;;;7.07;;
20890;SDS011;10605;52.968;8.844;2023-07-09T04:00:28;7.97;;;7.22;;
20890;SDS011;10605;52.968;8.844;2023-07-09T04:02:55;7.75;;;7.05;;
20890;SDS011;10605;52.968;8.844;2023-07-09T04:05:22;7.22;;;6.53;;
20890;SDS011;10605;52.968;8.844;2023-07-09T04:07:48;9.80;;;6.90;;
20890;SDS011;10605;52.968;8.844;2023-07-09T04:10:14;8.13;;;6.93;;
20890;SDS011;10605;52.968;8.844;2023-07-09T04:12:40;7.32;;;6.72;;
20890;SDS011;10605;52.968;8.844;2023-07-09T04:15:06;7.78;;;7.18;;
20890;SDS011;10605;52.968;8.844;2023-07-09T04:17:33;6.78;;;6.35;;
20890;SDS011;10605;52.968;8.844;2023-07-09T04:19:59;6.63;;;6.10;;
20890;SDS011;10605;52.968;8.844;2023-07-09T04:22:25;7.03;;;6.53;;
20890;SDS011;10605;52.968;8.844;2023-07-09T04:24:51;6.93;;;6.38;;
20890;SDS011;10605;52.968;8.844;2023-07-09T04:27:20;8.32;;;6.30;;
20890;SDS011;10605;52.968;8.844;2023-07-09T04:29:45;8.90;;;6.60;;
20890;SDS011;10605;52.968;8.844;2023-07-09T04:32:12;6.93;;;6.22;;
20890;SDS011;10605;52.968;8.844;2023-07-09T04:34:39;6.80;;;6.25;;
20890;SDS011;10605;52.968;8.844;2023-07-09T04:37:08;7.43;;;6.88;;
20890;SDS011;10605;52.968;8.844;2023-07-09T04:39:36;6.53;;;6.00;;
20890;SDS011;10605;52.968;8.844;2023-07-09T04:42:03;7.20;;;6.68;;
20890;SDS011;10605;52.968;8.844;2023-07-09T04:44:29;6.25;;;5.60;;
20890;SDS011;10605;52.968;8.844;2023-07-09T04:46:54;6.60;;;6.05;;
20890;SDS011;10605;52.968;8.844;2023-07-09T04:49:20;7.90;;;5.57;;
20890;SDS011;10605;52.968;8.844;2023-07-09T04:51:46;11.30;;;6.20;;
20890;SDS011;10605;52.968;8.844;2023-07-09T04:54:11;6.68;;;6.20;;
20890;SDS011;10605;52.968;8.844;2023-07-09T04:56:40;6.60;;;6.20;;
20890;SDS011;10605;52.968;8.844;2023-07-09T04:59:09;5.82;;;5.28;;
20890;SDS011;10605;52.968;8.844;2023-07-09T05:01:36;11.95;;;5.68;;
20890;SDS011;10605;52.968;8.844;2023-07-09T05:04:01;6.57;;;5.93;;
20890;SDS011;10605;52.968;8.844;2023-07-09T05:06:27;10.98;;;5.50;;
20890;SDS011;10605;52.968;8.844;2023-07-09T05:08:53;6.10;;;5.57;;
20890;SDS011;10605;52.968;8.844;2023-07-09T05:11:18;5.25;;;4.85;;
20890;SDS011;10605;52.968;8.844;2023-07-09T05:13:44;7.00;;;6.07;;
20890;SDS011;10605;52.968;8.844;2023-07-09T05:16:10;6.00;;;5.57;;
20890;SDS011;10605;52.968;8.844;2023-07-09T05:18:36;5.75;;;5.35;;
20890;SDS011;10605;52.968;8.844;2023-07-09T05:21:02;5.70;;;5.07;;
20890;SDS011;10605;52.968;8.844;2023-07-09T05:23:27;5.30;;;4.80;;
20890;SDS011;10605;52.968;8.844;2023-07-09T05:25:59;6.82;;;4.70;;
20890;SDS011;10605;52.968;8.844;2023-07-09T05:28:27;7.40;;;4.72;;
20890;SDS011;10605;52.968;8.844;2023-07-09T05:30:54;6.82;;;4.85;;
20890;SDS011;10605;52.968;8.844;2023-07-09T05:33:20;5.18;;;4.88;;
20890;SDS011;10605;52.968;8.844;2023-07-09T05:35:46;5.70;;;4.55;;
20890;SDS011;10605;52.968;8.844;2023-07-09T05:38:12;6.22;;;5.63;;
20890;SDS011;10605;52.968;8.844;2023-07-09T05:40:39;5.32;;;5.03;;
20890;SDS011;10605;52.968;8.844;2023-07-09T05:43:05;5.30;;;4.82;;
20890;SDS011;10605;52.968;8.844;2023-07-09T05:45:31;5.05;;;4.75;;
20890;SDS011;10605;52.968;8.844;2023-07-09T05:47:59;6.20;;;5.38;;
20890;SDS011;10605;52.968;8.844;2023-07-09T05:50:26;7.22;;;4.43;;
20890;SDS011;10605;52.968;8.844;2023-07-09T05:52:52;6.68;;;4.82;;
20890;SDS011;10605;52.968;8.844;2023-07-09T05:55:18;5.32;;;4.68;;
20890;SDS011;10605;52.968;8.844;2023-07-09T05:57:43;4.88;;;4.47;;
20890;SDS011;10605;52.968;8.844;2023-07-09T06:00:09;10.23;;;5.20;;
20890;SDS011;10605;52.968;8.844;2023-07-09T06:02:37;6.15;;;4.35;;
20890;SDS011;10605;52.968;8.844;2023-07-09T06:05:03;4.95;;;4.65;;
20890;SDS011;10605;52.968;8.844;2023-07-09T06:07:29;5.13;;;4.82;;
20890;SDS011;10605;52.968;8.844;2023-07-09T06:09:55;5.60;;;4.90;;
20890;SDS011;10605;52.968;8.844;2023-07-09T06:12:22;5.18;;;4.68;;
20890;SDS011;10605;52.968;8.844;2023-07-09T06:14:48;5.90;;;5.30;;
20890;SDS011;10605;52.968;8.844;2023-07-09T06:17:14;6.97;;;4.75;;
20890;SDS011;10605;52.968;8.844;2023-07-09T06:19:40;5.35;;;4.88;;
20890;SDS011;10605;52.968;8.844;2023-07-09T06:22:05;7.55;;;4.55;;
20890;SDS011;10605;52.968;8.844;2023-07-09T06:24:31;5.07;;;4.68;;
20890;SDS011;10605;52.968;8.844;2023-07-09T06:26:57;5.15;;;4.65;;
20890;SDS011;10605;52.968;8.844;2023-07-09T06:29:24;5.20;;;4.78;;
20890;SDS011;10605;52.968;8.844;2023-07-09T06:31:50;4.70;;;4.40;;
20890;SDS011;10605;52.968;8.844;2023-07-09T06:34:16;5.20;;;4.60;;
20890;SDS011;10605;52.968;8.844;2023-07-09T06:36:42;5.32;;;4.93;;
20890;SDS011;10605;52.968;8.844;2023-07-09T06:39:07;8.05;;;4.50;;
20890;SDS011;10605;52.968;8.844;2023-07-09T06:41:33;8.27;;;4.40;;
20890;SDS011;10605;52.968;8.844;2023-07-09T06:44:04;4.95;;;4.50;;
20890;SDS011;10605;52.968;8.844;2023-07-09T06:46:31;8.90;;;4.18;;
20890;SDS011;10605;52.968;8.844;2023-07-09T06:48:56;4.72;;;4.43;;
20890;SDS011;10605;52.968;8.844;2023-07-09T06:51:22;8.13;;;4.25;;
20890;SDS011;10605;52.968;8.844;2023-07-09T06:53:48;4.75;;;4.30;;
20890;SDS011;10605;52.968;8.844;2023-07-09T06:56:16;5.90;;;4.68;;
20890;SDS011;10605;52.968;8.844;2023-07-09T06:58:42;7.68;;;4.00;;
20890;SDS011;10605;52.968;8.844;2023-07-09T07:01:10;7.93;;;4.07;;
20890;SDS011;10605;52.968;8.844;2023-07-09T07:03:36;5.80;;;4.28;;
20890;SDS011;10605;52.968;8.844;2023-07-09T07:06:02;8.23;;;3.90;;
20890;SDS011;10605;52.968;8.844;2023-07-09T07:08:30;10.55;;;3.97;;
20890;SDS011;10605;52.968;8.844;2023-07-09T07:10:56;3.97;;;3.58;;
20890;SDS011;10605;52.968;8.844;2023-07-09T07:13:27;5.35;;;3.70;;
20890;SDS011;10605;52.968;8.844;2023-07-09T07:15:57;4.90;;;4.03;;
20890;SDS011;10605;52.968;8.844;2023-07-09T07:18:23;8.98;;;4.50;;
20890;SDS011;10605;52.968;8.844;2023-07-09T07:20:49;6.55;;;3.85;;
20890;SDS011;10605;52.968;8.844;2023-07-09T07:23:15;6.60;;;4.22;;
20890;SDS011;10605;52.968;8.844;2023-07-09T07:25:42;5.78;;;3.50;;
20890;SDS011;10605;52.968;8.844;2023-07-09T07:28:07;5.18;;;3.50;;
20890;SDS011;10605;52.968;8.844;2023-07-09T07:30:33;5.38;;;3.85;;
20890;SDS011;10605;52.968;8.844;2023-07-09T07:32:59;6.13;;;3.50;;
20890;SDS011;10605;52.968;8.844;2023-07-09T07:35:24;6.82;;;3.53;;
20890;SDS011;10605;52.968;8.844;2023-07-09T07:37:50;6.70;;;3.55;;
20890;SDS011;10605;52.968;8.844;2023-07-09T07:40:16;6.63;;;3.65;;
20890;SDS011;10605;52.968;8.844;2023-07-09T07:42:41;4.65;;;3.88;;
20890;SDS011;10605;52.968;8.844;2023-07-09T07:45:07;7.93;;;4.10;;
20890;SDS011;10605;52.968;8.844;2023-07-09T07:47:33;5.45;;;3.67;;
20890;SDS011;10605;52.968;8.844;2023-07-09T07:49:59;4.18;;;3.60;;
20890;SDS011;10605;52.968;8.844;2023-07-09T07:52:25;3.83;;;3.50;;
20890;SDS011;10605;52.968;8.844;2023-07-09T07:54:52;3.65;;;3.42;;
20890;SDS011;10605;52.968;8.844;2023-07-09T07:57:18;5.68;;;3.47;;
20890;SDS011;10605;52.968;8.844;2023-07-09T07:59:43;3.65;;;3.35;;
20890;SDS011;10605;52.968;8.844;2023-07-09T08:02:11;4.43;;;3.25;;
20890;SDS011;10605;52.968;8.844;2023-07-09T08:04:41;3.65;;;3.42;;
20890;SDS011;10605;52.968;8.844;2023-07-09T08:07:08;4.63;;;3.83;;
20890;SDS011;10605;52.968;8.844;2023-07-09T08:09:34;4.25;;;3.72;;
20890;SDS011;10605;52.968;8.844;2023-07-09T08:12:01;4.47;;;3.50;;
20890;SDS011;10605;52.968;8.844;2023-07-09T08:14:34;3.97;;;3.55;;
20890;SDS011;10605;52.968;8.844;2023-07-09T08:17:00;4.30;;;3.60;;
20890;SDS011;10605;52.968;8.844;2023-07-09T08:19:26;3.47;;;3.17;;
20890;SDS011;10605;52.968;8.844;2023-07-09T08:21:51;3.70;;;3.40;;
20890;SDS011;10605;52.968;8.844;2023-07-09T08:24:17;8.43;;;4.28;;
20890;SDS011;10605;52.968;8.844;2023-07-09T08:26:43;3.97;;;3.58;;
20890;SDS011;10605;52.968;8.844;2023-07-09T08:29:08;4.10;;;3.70;;
20890;SDS011;10605;52.968;8.844;2023-07-09T08:31:34;3.72;;;3.45;;
20890;SDS011;10605;52.968;8.844;2023-07-09T08:34:00;6.80;;;3.47;;
20890;SDS011;10605;52.968;8.844;2023-07-09T08:36:26;4.53;;;3.20;;
20890;SDS011;10605;52.968;8.844;2023-07-09T08:38:52;4.47;;;3.53;;
20890;SDS011;10605;52.968;8.844;2023-07-09T08:46:41;4.63;;;3.38;;
20890;SDS011;10605;52.968;8.844;2023-07-09T08:49:23;5.93;;;3.40;;
20890;SDS011;10605;52.968;8.844;2023-07-09T08:52:32;5.15;;;3.17;;
20890;SDS011;10605;52.968;8.844;2023-07-09T08:54:59;3.90;;;3.50;;
20890;SDS011;10605;52.968;8.844;2023-07-09T08:57:34;6.35;;;3.08;;
20890;SDS011;10605;52.968;8.844;2023-07-09T09:02:35;5.13;;;3.25;;
20890;SDS011;10605;52.968;8.844;2023-07-09T09:05:06;8.60;;;3.35;;
20890;SDS011;10605;52.968;8.844;2023-07-09T09:07:41;5.70;;;3.08;;
20890;SDS011;10605;52.968;8.844;2023-07-09T09:10:13;3.88;;;3.63;;
20890;SDS011;10605;52.968;8.844;2023-07-09T09:15:30;3.13;;;3.03;;
20890;SDS011;10605;52.968;8.844;2023-07-09T09:17:58;4.82;;;3.45;;
20890;SDS011;10605;52.968;8.844;2023-07-09T09:20:39;3.80;;;3.10;;
20890;SDS011;10605;52.968;8.844;2023-07-09T09:25:32;3.33;;;3.13;;
20890;SDS011;10605;52.968;8.844;2023-07-09T09:28:02;5.72;;;3.25;;
20890;SDS011;10605;52.968;8.844;2023-07-09T09:30:29;6.22;;;3.10;;
20890;SDS011;10605;52.968;8.844;2023-07-09T09:32:59;5.55;;;3.33;;
20890;SDS011;10605;52.968;8.844;2023-07-09T09:35:35;6.03;;;3.17;;
20890;SDS011;10605;52.968;8.844;2023-07-09T09:38:08;3.55;;;2.97;;
20890;SDS011;10605;52.968;8.844;2023-07-09T09:40:36;7.32;;;3.63;;
20890;SDS011;10605;52.968;8.844;2023-07-09T09:43:02;8.57;;;3.20;;
20890;SDS011;10605;52.968;8.844;2023-07-09T09:45:37;3.50;;;3.30;;
20890;SDS011;10605;52.968;8.844;2023-07-09T09:48:13;5.82;;;3.53;;
20890;SDS011;10605;52.968;8.844;2023-07-09T09:50:59;3.42;;;3.17;;
20890;SDS011;10605;52.968;8.844;2023-07-09T09:53:29;4.78;;;3.22;;
20890;SDS011;10605;52.968;8.844;2023-07-09T09:56:03;3.65;;;3.17;;
20890;SDS011;10605;52.968;8.844;2023-07-09T09:58:31;4.35;;;3.50;;
20890;SDS011;10605;52.968;8.844;2023-07-09T10:00:57;6.50;;;3.50;;
20890;SDS011;10605;52.968;8.844;2023-07-09T10:03:34;6.53;;;3.72;;
20890;SDS011;10605;52.968;8.844;2023-07-09T10:06:35;3.88;;;3.25;;
20890;SDS011;10605;52.968;8.844;2023-07-09T10:11:44;3.47;;;3.17;;
20890;SDS011;10605;52.968;8.844;2023-07-09T10:14:33;4.55;;;3.38;;
20890;SDS011;10605;52.968;8.844;2023-07-09T10:22:23;4.72;;;3.08;;
20890;SDS011;10605;52.968;8.844;2023-07-09T10:33:08;3.65;;;3.30;;
20890;SDS011;10605;52.968;8.844;2023-07-09T10:38:41;3.60;;;3.30;;
20890;SDS011;10605;52.968;8.844;2023-07-09T10:41:09;8.60;;;3.40;;
20890;SDS011;10605;52.968;8.844;2023-07-09T10:43:38;6.43;;;3.70;;
20890;SDS011;10605;52.968;8.844;2023-07-09T10:46:16;3.78;;;3.47;;
20890;SDS011;10605;52.968;8.844;2023-07-09T10:48:52;4.55;;;3.58;;
20890;SDS011;10605;52.968;8.844;2023-07-09T10:51:27;12.88;;;3.38;;
20890;SDS011;10605;52.968;8.844;2023-07-09T10:56:27;5.20;;;3.40;;
20890;SDS011;10605;52.968;8.844;2023-07-09T10:58:57;4.40;;;3.60;;
20890;SDS011;10605;52.968;8.844;2023-07-09T11:01:38;3.38;;;3.08;;
20890;SDS011;10605;52.968;8.844;2023-07-09T11:04:11;4.45;;;3.63;;
20890;SDS011;10605;52.968;8.844;2023-07-09T11:07:00;4.78;;;4.18;;
20890;SDS011;10605;52.968;8.844;2023-07-09T11:09:34;3.70;;;3.40;;
20890;SDS011;10605;52.968;8.844;2023-07-09T11:12:08;3.22;;;3.03;;
20890;SDS011;10605;52.968;8.844;2023-07-09T11:14:39;7.60;;;3.22;;
20890;SDS011;10605;52.968;8.844;2023-07-09T11:17:16;4.10;;;3.63;;
20890;SDS011;10605;52.968;8.844;2023-07-09T11:20:06;3.90;;;3.47;;
20890;SDS011;10605;52.968;8.844;2023-07-09T11:22:40;4.18;;;3.15;;
20890;SDS011;10605;52.968;8.844;2023-07-09T11:25:10;4.00;;;3.60;;
20890;SDS011;10605;52.968;8.844;2023-07-09T11:27:50;3.90;;;3.70;;
20890;SDS011;10605;52.968;8.844;2023-07-09T11:30:25;5.38;;;4.97;;
20890;SDS011;10605;52.968;8.844;2023-07-09T11:32:53;4.85;;;3.58;;
20890;SDS011;10605;52.968;8.844;2023-07-09T11:35:26;4.50;;;4.20;;
20890;SDS011;10605;52.968;8.844;2023-07-09T11:37:54;6.57;;;3.40;;
20890;SDS011;10605;52.968;8.844;2023-07-09T11:40:21;4.38;;;3.60;;
20890;SDS011;10605;52.968;8.844;2023-07-09T11:42:49;4.15;;;3.53;;
20890;SDS011;10605;52.968;8.844;2023-07-09T11:45:30;3.63;;;3.38;;
20890;SDS011;10605;52.968;8.844;2023-07-09T11:48:10;5.53;;;4.22;;
20890;SDS011;10605;52.968;8.844;2023-07-09T11:50:54;3.63;;;3.42;;
20890;SDS011;10605;52.968;8.844;2023-07-09T11:56:24;6.20;;;4.45;;
20890;SDS011;10605;52.968;8.844;2023-07-09T11:58:51;7.13;;;5.80;;
20890;SDS011;10605;52.968;8.844;2023-07-09T12:01:19;5.13;;;4.20;;
20890;SDS011;10605;52.968;8.844;2023-07-09T12:03:48;5.53;;;3.45;;
20890;SDS011;10605;52.968;8.844;2023-07-09T12:08:44;3.53;;;3.22;;
20890;SDS011;10605;52.968;8.844;2023-07-09T12:11:24;6.32;;;3.53;;
20890;SDS011;10605;52.968;8.844;2023-07-09T12:14:32;32.65;;;9.05;;
20890;SDS011;10605;52.968;8.844;2023-07-09T12:16:52;4.25;;;3.85;;
20890;SDS011;10605;52.968;8.844;2023-07-09T12:19:20;3.63;;;3.40;;
20890;SDS011;10605;52.968;8.844;2023-07-09T12:21:49;4.63;;;4.22;;
20890;SDS011;10605;52.968;8.844;2023-07-09T12:24:22;3.92;;;3.45;;
20890;SDS011;10605;52.968;8.844;2023-07-09T12:26:59;4.00;;;3.60;;
20890;SDS011;10605;52.968;8.844;2023-07-09T12:29:29;7.97;;;3.30;;
20890;SDS011;10605;52.968;8.844;2023-07-09T12:31:57;3.85;;;3.55;;
20890;SDS011;10605;52.968;8.844;2023-07-09T12:34:23;6.10;;;3.38;;
20890;SDS011;10605;52.968;8.844;2023-07-09T12:36:50;13.77;;;3.38;;
20890;SDS011;10605;52.968;8.844;2023-07-09T12:59:45;3.72;;;3.53;;
20890;SDS011;10605;52.968;8.844;2023-07-09T13:22:29;3.75;;;3.55;;
20890;SDS011;10605;52.968;8.844;2023-07-09T13:31:38;3.90;;;3.53;;
20890;SDS011;10605;52.968;8.844;2023-07-09T13:37:39;3.70;;;3.50;;
20890;SDS011;10605;52.968;8.844;2023-07-09T13:40:17;4.32;;;4.03;;
20890;SDS011;10605;52.968;8.844;2023-07-09T13:42:50;4.72;;;4.10;;
20890;SDS011;10605;52.968;8.844;2023-07-09T13:52:12;8.32;;;4.15;;
20890;SDS011;10605;52.968;8.844;2023-07-09T13:58:59;5.28;;;4.68;;
20890;SDS011;10605;52.968;8.844;2023-07-09T14:01:50;7.55;;;4.55;;
20890;SDS011;10605;52.968;8.844;2023-07-09T14:04:21;5.70;;;5.07;;
20890;SDS011;10605;52.968;8.844;2023-07-09T14:07:02;5.65;;;4.43;;
20890;SDS011;10605;52.968;8.844;2023-07-09T14:12:56;5.35;;;4.93;;
20890;SDS011;10605;52.968;8.844;2023-07-09T14:19:29;8.55;;;4.55;;
20890;SDS011;10605;52.968;8.844;2023-07-09T14:25:09;4.88;;;4.40;;
20890;SDS011;10605;52.968;8.844;2023-07-09T14:28:23;5.07;;;4.57;;
20890;SDS011;10605;52.968;8.844;2023-07-09T14:30:54;6.10;;;4.35;;
20890;SDS011;10605;52.968;8.844;2023-07-09T14:44:01;6.47;;;4.55;;
20890;SDS011;10605;52.968;8.844;2023-07-09T14:47:20;5.45;;;4.68;;
20890;SDS011;10605;52.968;8.844;2023-07-09T15:07:20;4.82;;;4.53;;
20890;SDS011;10605;52.968;8.844;2023-07-09T15:13:02;4.40;;;4.00;;
20890;SDS011;10605;52.968;8.844;2023-07-09T15:16:13;4.60;;;3.90;;
20890;SDS011;10605;52.968;8.844;2023-07-09T15:25:21;6.47;;;4.40;;
20890;SDS011;10605;52.968;8.844;2023-07-09T15:28:28;6.55;;;4.53;;
20890;SDS011;10605;52.968;8.844;2023-07-09T15:31:17;5.32;;;4.82;;
20890;SDS011;10605;52.968;8.844;2023-07-09T15:33:51;4.68;;;4.38;;
20890;SDS011;10605;52.968;8.844;2023-07-09T15:36:18;6.45;;;4.43;;
20890;SDS011;10605;52.968;8.844;2023-07-09T15:38:54;9.20;;;4.78;;
20890;SDS011;10605;52.968;8.844;2023-07-09T15:41:20;4.57;;;3.97;;
20890;SDS011;10605;52.968;8.844;2023-07-09T15:46:52;7.25;;;4.15;;
20890;SDS011;10605;52.968;8.844;2023-07-09T15:49:35;5.15;;;4.10;;
20890;SDS011;10605;52.968;8.844;2023-07-09T15:52:30;5.15;;;4.10;;
20890;SDS011;10605;52.968;8.844;2023-07-09T15:59:10;10.38;;;4.70;;
20890;SDS011;10605;52.968;8.844;2023-07-09T16:08:57;11.05;;;4.65;;
20890;SDS011;10605;52.968;8.844;2023-07-09T16:14:58;13.65;;;4.15;;
20890;SDS011;10605;52.968;8.844;2023-07-09T16:24:02;13.20;;;4.57;;
20890;SDS011;10605;52.968;8.844;2023-07-09T16:29:59;11.07;;;5.38;;
20890;SDS011;10605;52.968;8.844;2023-07-09T16:35:21;11.85;;;4.43;;
20890;SDS011;10605;52.968;8.844;2023-07-09T16:37:56;10.45;;;4.97;;
20890;SDS011;10605;52.968;8.844;2023-07-09T16:40:28;8.57;;;4.88;;
20890;SDS011;10605;52.968;8.844;2023-07-09T16:43:39;6.45;;;4.32;;
20890;SDS011;10605;52.968;8.844;2023-07-09T16:46:23;5.13;;;4.63;;
20890;SDS011;10605;52.968;8.844;2023-07-09T16:52:56;5.72;;;4.50;;
20890;SDS011;10605;52.968;8.844;2023-07-09T17:08:22;6.43;;;4.60;;
20890;SDS011;10605;52.968;8.844;2023-07-09T17:22:07;11.75;;;5.55;;
20890;SDS011;10605;52.968;8.844;2023-07-09T17:37:23;9.07;;;5.72;;
20890;SDS011;10605;52.968;8.844;2023-07-09T17:39:49;5.45;;;4.95;;
20890;SDS011;10605;52.968;8.844;2023-07-09T17:42:39;5.80;;;5.18;;
20890;SDS011;10605;52.968;8.844;2023-07-09T17:48:30;8.35;;;6.15;;
20890;SDS011;10605;52.968;8.844;2023-07-09T17:51:24;6.03;;;5.53;;
20890;SDS011;10605;52.968;8.844;2023-07-09T18:07:38;26.92;;;3.17;;
20890;SDS011;10605;52.968;8.844;2023-07-09T18:30:24;2.65;;;2.28;;
20890;SDS011;10605;52.968;8.844;2023-07-09T18:32:52;6.47;;;2.10;;
20890;SDS011;10605;52.968;8.844;2023-07-09T18:35:26;9.85;;;2.40;;
20890;SDS011;10605;52.968;8.844;2023-07-09T18:37:55;5.90;;;2.30;;
20890;SDS011;10605;52.968;8.844;2023-07-09T18:40:23;2.60;;;2.40;;
20890;SDS011;10605;52.968;8.844;2023-07-09T18:42:50;2.58;;;2.38;;
20890;SDS011;10605;52.968;8.844;2023-07-09T18:45:17;3.97;;;2.28;;
20890;SDS011;10605;52.968;8.844;2023-07-09T18:47:44;4.00;;;2.45;;
20890;SDS011;10605;52.968;8.844;2023-07-09T18:50:14;2.20;;;2.00;;
20890;SDS011;10605;52.968;8.844;2023-07-09T18:52:54;2.47;;;2.25;;
20890;SDS011;10605;52.968;8.844;2023-07-09T18:55:23;2.00;;;1.80;;
20890;SDS011;10605;52.968;8.844;2023-07-09T18:57:53;3.95;;;2.65;;
20890;SDS011;10605;52.968;8.844;2023-07-09T19:00:19;4.20;;;1.95;;
20890;SDS011;10605;52.968;8.844;2023-07-09T19:02:48;2.28;;;2.00;;
20890;SDS011;10605;52.968;8.844;2023-07-09T19:07:47;3.28;;;2.15;;
20890;SDS011;10605;52.968;8.844;2023-07-09T19:10:21;3.22;;;2.00;;
20890;SDS011;10605;52.968;8.844;2023-07-09T19:12:49;3.30;;;2.22;;
20890;SDS011;10605;52.968;8.844;2023-07-09T19:15:18;4.78;;;2.45;;
20890;SDS011;10605;52.968;8.844;2023-07-09T19:17:47;3.85;;;2.38;;
20890;SDS011;10605;52.968;8.844;2023-07-09T19:20:18;5.30;;;2.70;;
20890;SDS011;10605;52.968;8.844;2023-07-09T19:22:46;6.68;;;2.90;;
20890;SDS011;10605;52.968;8.844;2023-07-09T19:25:16;6.00;;;2.50;;
20890;SDS011;10605;52.968;8.844;2023-07-09T19:27:44;7.85;;;2.80;;